Chattaroy, West Virginia
Current Conditions -  °F | °C
As of 12:35 AM on Sunday 23 Nov 2014 (Local Time) from KPBX Reporting Station
Broken Clouds Broken Clouds  
Wind Chill: 50°   Ceiling: 8500
Heat Index: 50°   Visibility: 10mi
Dew Point: 26°   Wind: 6mph
Humidity: 38%   Direction: 160°SSE
Pressure: 30.14"   Gusts: NA
Location:  37.71°N, 82.27°W
Report Text: KPBX 230535Z AUTO 16005KT 10SM BKN085 10/M03 A3014 RMK AO2 T01021035
Loading
Personal Weather Stations






























Interactive Weather Map New forecast layout! Learn more

10-Day Weather Forecast

Advertisements
Track Severe Weather on mobile